Friday, October 19, 2018, 2:53 AM EDT
Back to Local

KPEO, Penn Yan Airport

Location: Penn Yan, NY, United States Lat: 42.65
Local Time: 2:53 AM EDT ( 6:53 GMT) Lon: -77.05
Time Zone: US/Eastern Elev: 977 ft

Show me the last for .
Show Decoded

2018-10-19 01:53 METAR KPEO 190553Z AUTO 22006KT 10SM CLR 04/00 A3024 RMK AO2 SLP247 T00440000
                 10044 20006 56017 =
2018-10-19 00:53 METAR KPEO 190453Z AUTO VRB04KT 10SM CLR 03/M01 A3025 RMK AO2 SLP250 T00281011
                 400670006 =
2018-10-18 23:53 METAR KPEO 190353Z AUTO 21005KT 10SM CLR 03/M01 A3026 RMK AO2 SLP256 T00281006 =
2018-10-18 22:53 METAR KPEO 190253Z AUTO 16005KT 10SM CLR 01/M02 A3029 RMK AO2 SLP266 T00061022
                 56015 =
2018-10-18 21:53 METAR KPEO 190153Z AUTO 18004KT 10SM CLR 01/M02 A3030 RMK AO2 SLP270 T00111022 =
2018-10-18 20:53 METAR KPEO 190053Z AUTO 22005KT 10SM CLR 03/M02 A3031 RMK AO2 SLP274 T00331017 =
2018-10-18 19:53 METAR KPEO 182353Z AUTO 23005KT 10SM CLR 04/M02 A3034 RMK AO2 SLP282 T00391022
                 10067 20028 56007 =
2018-10-18 18:53 METAR KPEO 182253Z AUTO 25005KT 10SM CLR 04/M02 A3034 RMK AO2 SLP285 T00441022 =
2018-10-18 17:53 METAR KPEO 182153Z AUTO 26007KT 10SM CLR 06/M03 A3034 RMK AO2 SLP282 T00561028 =
2018-10-18 16:53 METAR KPEO 182053Z AUTO 31007KT 10SM FEW046 06/M03 A3036 RMK AO2 SLP288
                 T00611033 56013 =
2018-10-18 15:53 METAR KPEO 181953Z AUTO 27008G17KT 10SM BKN042 05/M04 A3037 RMK AO2 SLP293
                 T00501039 =
2018-10-18 14:53 METAR KPEO 181853Z AUTO 29009KT 10SM BKN044 07/M04 A3038 RMK AO2 SLP294
                 T00671039 =
2018-10-18 13:53 METAR KPEO 181753Z AUTO VRB06KT 10SM SCT044 06/M05 A3040 RMK AO2 SLP301
                 T00561050 10061 20006 58007 =
2018-10-18 12:53 METAR KPEO 181653Z AUTO 30008KT 10SM BKN045 05/M05 A3042 RMK AO2 SLP307
                 T00501050 =
2018-10-18 11:53 METAR KPEO 181553Z AUTO 31009G15KT 10SM BKN044 04/M06 A3043 RMK AO2 SLP312
                 T00441056 =
2018-10-18 10:53 METAR KPEO 181453Z AUTO 33013G20KT 10SM CLR 03/M07 A3042 RMK AO2 SLP308
                 T00331067 51013 =
2018-10-18 09:53 METAR KPEO 181353Z AUTO 32011G16KT 10SM CLR 03/M08 A3041 RMK AO2 SLP308
                 T00281078 =
2018-10-18 08:53 METAR KPEO 181253Z AUTO 31009KT 10SM CLR 02/M06 A3040 RMK AO2 SLP304 T00171061 =
2018-10-18 07:53 METAR KPEO 181153Z AUTO 31006KT 10SM FEW055 01/M06 A3038 RMK AO2 SLP296 60001
                 70004 T00061056 10028 20006 51023 =
2018-10-18 06:53 METAR KPEO 181053Z AUTO 31007KT 10SM SCT060 01/M04 A3036 RMK AO2 SLP291
                 T00061044 =
2018-10-18 05:53 METAR KPEO 180953Z AUTO 31007KT 10SM OVC060 01/M04 A3033 RMK AO2 SLP280
                 T00111039 =
2018-10-18 04:53 METAR KPEO 180853Z AUTO VRB06KT 10SM OVC060 02/M03 A3031 RMK AO2 SLP271 60001
                 T00171033 51030 =
2018-10-18 03:53 METAR KPEO 180753Z AUTO VRB05KT 10SM SCT038 SCT050 OVC070 01/M02 A3027 RMK AO2
                 SNE18 SLP258 P0001 T00111017 =
2018-10-18 03:19 METAR KPEO 180719Z AUTO 30007KT 9SM SCT033 BKN044 OVC065 01/M01 A3026 RMK AO2
                 SNE18 P0001 T00061011 =
2018-10-18 03:11 METAR KPEO 180711Z AUTO VRB06G16KT 3SM -SN BR BKN029 BKN035 OVC070 01/M01 A3025
                 RMK AO2 P0001 T00061011 =
2018-10-18 03:07 METAR KPEO 180707Z AUTO 31010G16KT 2 1/2SM -SN BR SCT024 OVC033 01/M01 A3026 RMK
                 AO2 P0001 T00061011 =
2018-10-18 03:00 METAR KPEO 180700Z AUTO 32010KT 3SM -SN BR SCT014 SCT026 OVC033 01/M01 A3026 RMK
                 AO2 P0001 T00061011 =

Support USWX by starting your Amazon purchase here.